createdAt,value
2019-04-25T00:00:51.409Z,8.67
2019-04-25T00:03:38.327Z,7.93
2019-04-25T00:06:26.252Z,7.73
2019-04-25T00:08:53.486Z,7.53
2019-04-25T00:19:57.968Z,8.20
2019-04-25T00:22:44.850Z,9.17
2019-04-25T00:25:31.437Z,7.73
2019-04-25T00:30:52.314Z,7.90
2019-04-25T00:33:21.522Z,8.60
2019-04-25T00:35:48.158Z,8.63
2019-04-25T00:38:14.427Z,8.50
2019-04-25T00:40:42.731Z,9.07
2019-04-25T00:43:08.963Z,8.83
2019-04-25T00:45:35.212Z,9.53
2019-04-25T00:48:02.425Z,8.30
2019-04-25T00:50:29.625Z,8.33
2019-04-25T00:52:55.872Z,8.10
2019-04-25T00:55:28.626Z,8.67
2019-04-25T01:00:48.995Z,8.70
2019-04-25T01:03:35.300Z,8.93
2019-04-25T01:06:03.380Z,8.87
2019-04-25T01:08:29.710Z,8.70
2019-04-25T01:10:56.036Z,8.93
2019-04-25T01:13:22.397Z,8.50
2019-04-25T01:18:55.971Z,8.80
2019-04-25T01:21:22.208Z,8.70
2019-04-25T01:23:49.356Z,11.03
2019-04-25T01:26:16.725Z,9.30
2019-04-25T01:28:43.938Z,8.50
2019-04-25T01:33:58.822Z,8.60
2019-04-25T01:36:44.851Z,8.70
2019-04-25T01:39:26.259Z,8.23
2019-04-25T01:47:04.193Z,8.53
2019-04-25T01:49:31.843Z,8.10
2019-04-25T01:51:58.622Z,9.30
2019-04-25T01:56:55.921Z,8.40
2019-04-25T01:59:23.721Z,8.07
2019-04-25T02:01:50.950Z,8.37
2019-04-25T02:04:18.208Z,8.80
2019-04-25T02:06:44.593Z,9.00
2019-04-25T02:12:05.076Z,8.73
2019-04-25T02:14:31.354Z,9.53
2019-04-25T02:16:58.461Z,8.50
2019-04-25T02:19:25.923Z,8.33
2019-04-25T02:21:54.412Z,8.37
2019-04-25T02:24:20.920Z,8.43
2019-04-25T02:26:47.164Z,8.80
2019-04-25T02:29:13.730Z,9.50
2019-04-25T02:31:41.617Z,9.73
2019-04-25T02:34:08.780Z,10.37
2019-04-25T02:36:35.231Z,9.80
2019-04-25T02:39:04.617Z,9.13
2019-04-25T02:41:29.711Z,8.70
2019-04-25T02:43:59.915Z,9.13
2019-04-25T02:46:44.862Z,9.80
2019-04-25T02:49:38.664Z,9.10
2019-04-25T02:52:19.042Z,10.63
2019-04-25T02:54:45.274Z,9.40
2019-04-25T02:57:11.555Z,10.27
2019-04-25T02:59:37.808Z,10.87
2019-04-25T03:05:01.332Z,9.63
2019-04-25T03:07:28.880Z,9.70
2019-04-25T03:09:55.283Z,10.03
2019-04-25T03:12:30.727Z,9.10
2019-04-25T03:14:49.737Z,9.27
2019-04-25T03:17:37.534Z,9.43
2019-04-25T03:28:48.324Z,9.50
2019-04-25T03:31:22.066Z,7.97
2019-04-25T03:33:45.055Z,8.27
2019-04-25T03:36:10.921Z,8.23
2019-04-25T03:38:37.279Z,8.10
2019-04-25T03:41:04.822Z,8.47
2019-04-25T03:43:33.243Z,8.43
2019-04-25T03:45:59.892Z,8.40
2019-04-25T03:48:26.638Z,8.30
2019-04-25T03:50:54.026Z,8.57
2019-04-25T03:53:21.153Z,8.73
2019-04-25T03:55:47.405Z,11.43
2019-04-25T03:58:14.611Z,8.93
2019-04-25T04:03:38.639Z,7.93
2019-04-25T04:06:07.312Z,8.57
2019-04-25T04:08:34.292Z,8.77
2019-04-25T04:11:01.263Z,8.40
2019-04-25T04:13:27.523Z,8.73
2019-04-25T04:24:14.111Z,9.33
2019-04-25T04:26:41.005Z,9.47
2019-04-25T04:29:07.796Z,8.63
2019-04-25T04:31:34.253Z,8.97
2019-04-25T04:34:00.495Z,8.60
2019-04-25T04:36:26.791Z,8.90
2019-04-25T04:38:54.303Z,8.13
2019-04-25T04:41:21.230Z,8.87
2019-04-25T04:43:47.488Z,8.77
2019-04-25T04:46:16.731Z,8.80
2019-04-25T04:48:43.746Z,8.33
2019-04-25T04:51:10.545Z,8.47
2019-04-25T04:53:38.305Z,8.00
2019-04-25T04:56:04.559Z,8.03
2019-04-25T04:58:30.802Z,7.97
2019-04-25T05:00:57.057Z,8.03
2019-04-25T05:03:44.101Z,10.03
2019-04-25T05:11:18.265Z,8.23
2019-04-25T05:13:44.496Z,8.13
2019-04-25T05:16:11.189Z,9.00
2019-04-25T05:18:40.046Z,7.27
2019-04-25T05:21:07.046Z,7.17
2019-04-25T05:23:34.386Z,7.60
2019-04-25T05:26:01.451Z,6.93
2019-04-25T05:28:27.736Z,7.77
2019-04-25T05:33:27.879Z,7.27
2019-04-25T05:35:54.156Z,7.70
2019-04-25T05:38:20.427Z,7.70
2019-04-25T05:46:09.959Z,7.57
2019-04-25T05:48:36.223Z,8.37
2019-04-25T05:51:23.962Z,8.07
2019-04-25T05:53:50.430Z,8.03
2019-04-25T05:56:16.693Z,7.53
2019-04-25T05:58:43.914Z,7.20
2019-04-25T06:01:11.167Z,7.47
2019-04-25T06:03:37.469Z,7.60
2019-04-25T06:06:03.702Z,7.77
2019-04-25T06:19:29.203Z,7.47
2019-04-25T06:33:13.337Z,8.00
2019-04-25T06:35:40.691Z,8.93
2019-04-25T06:38:26.877Z,8.37
2019-04-25T06:40:53.628Z,8.03
2019-04-25T06:46:14.035Z,7.87
2019-04-25T06:51:48.868Z,8.50
2019-04-25T06:54:15.556Z,8.00
2019-04-25T06:56:43.421Z,9.07
2019-04-25T06:59:10.364Z,8.23
2019-04-25T07:01:36.625Z,8.37
2019-04-25T07:04:04.058Z,9.80
2019-04-25T07:12:05.688Z,9.57
2019-04-25T07:14:33.839Z,9.03
2019-04-25T07:17:00.518Z,11.03
2019-04-25T07:19:28.295Z,9.90
2019-04-25T07:21:55.920Z,9.23
2019-04-25T07:24:22.179Z,9.23
2019-04-25T07:27:08.532Z,9.60
2019-04-25T07:35:18.708Z,10.03
2019-04-25T07:37:44.960Z,10.57
2019-04-25T07:43:05.095Z,9.10
2019-04-25T07:45:31.353Z,10.50
2019-04-25T07:47:57.677Z,9.60
2019-04-25T07:50:23.963Z,9.27
2019-04-25T07:52:50.204Z,9.57
2019-04-25T07:55:16.571Z,9.67
2019-04-25T07:57:44.276Z,9.00
2019-04-25T08:00:53.913Z,9.47
2019-04-25T08:03:20.298Z,9.23
2019-04-25T08:05:46.582Z,8.97
2019-04-25T08:08:13.556Z,9.50
2019-04-25T08:11:23.658Z,9.40
2019-04-25T08:14:10.251Z,8.67
2019-04-25T08:16:56.369Z,8.87
2019-04-25T08:22:23.621Z,8.57
2019-04-25T08:24:50.121Z,8.48
2019-04-25T08:27:16.361Z,7.23
2019-04-25T08:29:44.855Z,7.80
2019-04-25T08:34:40.819Z,8.43
2019-04-25T08:37:17.537Z,7.70
2019-04-25T08:39:38.088Z,7.95
2019-04-25T08:42:03.536Z,7.90
2019-04-25T08:44:29.821Z,7.55
2019-04-25T08:46:56.099Z,7.72
2019-04-25T08:52:09.977Z,7.70
2019-04-25T09:01:03.895Z,8.15
2019-04-25T09:03:50.085Z,7.13
2019-04-25T09:06:16.559Z,7.15
2019-04-25T09:08:45.367Z,7.55
2019-04-25T09:11:32.383Z,7.10
2019-04-25T09:16:45.163Z,7.00
2019-04-25T09:19:14.255Z,7.12
2019-04-25T09:21:45.387Z,6.87
2019-04-25T09:24:09.354Z,7.08
2019-04-25T09:26:36.921Z,7.85
2019-04-25T09:29:15.978Z,7.12
2019-04-25T09:31:34.333Z,6.90
2019-04-25T09:34:00.251Z,6.95
2019-04-25T09:36:26.613Z,6.75
2019-04-25T09:41:26.994Z,6.80
2019-04-25T09:46:47.769Z,6.85
2019-04-25T09:49:15.905Z,7.42
2019-04-25T09:52:03.367Z,6.55
2019-04-25T09:57:24.026Z,6.00
2019-04-25T09:59:50.388Z,5.50
2019-04-25T10:02:16.696Z,5.97
2019-04-25T10:04:45.131Z,5.97
2019-04-25T10:07:11.110Z,5.83
2019-04-25T10:09:37.502Z,5.53
2019-04-25T10:12:03.866Z,4.95
2019-04-25T10:15:09.614Z,5.55
2019-04-25T10:17:37.589Z,5.08
2019-04-25T10:20:46.313Z,5.70
2019-04-25T10:23:13.607Z,5.17
2019-04-25T10:31:05.960Z,5.65
2019-04-25T10:33:32.249Z,5.92
2019-04-25T10:36:00.960Z,5.65
2019-04-25T10:39:11.021Z,4.95
2019-04-25T10:41:36.241Z,4.97
2019-04-25T10:44:45.717Z,5.83
2019-04-25T10:47:25.834Z,5.50
2019-04-25T10:49:55.219Z,5.05
2019-04-25T10:52:20.525Z,5.87
2019-04-25T10:54:47.886Z,5.45
2019-04-25T10:57:14.957Z,4.95
2019-04-25T10:59:54.580Z,4.75
2019-04-25T11:07:17.780Z,5.35
2019-04-25T11:09:45.580Z,5.47
2019-04-25T11:12:25.522Z,5.97
2019-04-25T11:14:53.299Z,5.53
2019-04-25T11:17:20.090Z,5.45
2019-04-25T11:19:46.823Z,5.65
2019-04-25T11:24:44.597Z,5.60
2019-04-25T11:27:10.981Z,6.08
2019-04-25T11:29:37.382Z,5.80
2019-04-25T11:34:51.538Z,5.65
2019-04-25T11:42:47.090Z,5.55
2019-04-25T11:45:36.323Z,5.17
2019-04-25T11:53:55.580Z,5.03
2019-04-25T11:56:24.180Z,5.45
2019-04-25T12:04:05.433Z,5.47
2019-04-25T12:06:33.456Z,5.00
2019-04-25T12:08:59.837Z,5.47
2019-04-25T12:14:11.947Z,4.80
2019-04-25T12:16:38.435Z,5.08
2019-04-25T12:19:04.853Z,5.55
2019-04-25T12:21:31.278Z,5.00
2019-04-25T12:23:58.050Z,5.62
2019-04-25T12:26:26.243Z,4.63
2019-04-25T12:28:54.733Z,5.08
2019-04-25T12:31:20.799Z,5.50
2019-04-25T12:33:48.665Z,5.15
2019-04-25T12:39:35.971Z,5.33
2019-04-25T12:42:02.214Z,5.65
2019-04-25T12:47:44.113Z,5.55
2019-04-25T12:52:58.151Z,5.60
2019-04-25T12:55:44.363Z,5.50
2019-04-25T12:58:13.557Z,5.47
2019-04-25T13:00:47.929Z,5.17
2019-04-25T13:03:09.822Z,5.97
2019-04-25T13:05:36.418Z,5.50
2019-04-25T13:13:44.420Z,5.47
2019-04-25T13:16:10.676Z,5.40
2019-04-25T13:19:09.180Z,5.80
2019-04-25T13:21:24.903Z,5.60
2019-04-25T13:23:51.148Z,5.70
2019-04-25T13:26:19.192Z,5.20
2019-04-25T13:29:05.293Z,5.42
2019-04-25T13:31:51.349Z,5.42
2019-04-25T13:36:58.159Z,5.50
2019-04-25T13:47:49.488Z,5.80
2019-04-25T13:50:15.764Z,6.23
2019-04-25T13:52:43.243Z,5.47
2019-04-25T13:55:10.413Z,5.80
2019-04-25T13:57:37.105Z,5.60
2019-04-25T14:02:59.498Z,5.93
2019-04-25T14:08:14.943Z,5.13
2019-04-25T14:27:26.744Z,5.47
2019-04-25T14:29:53.583Z,5.80
2019-04-25T14:32:35.188Z,5.60
2019-04-25T14:35:24.147Z,5.50
2019-04-25T14:40:50.678Z,5.00
2019-04-25T14:43:17.190Z,6.23
2019-04-25T14:45:45.671Z,5.80
2019-04-25T14:48:11.919Z,5.43
2019-04-25T14:50:38.190Z,5.63
2019-04-25T14:53:04.485Z,5.30
2019-04-25T14:55:50.481Z,5.87
2019-04-25T15:03:26.038Z,4.97
2019-04-25T15:05:55.293Z,5.20
2019-04-25T15:08:21.767Z,5.10
2019-04-25T15:10:48.525Z,4.80
2019-04-25T15:13:15.225Z,5.30
2019-04-25T15:15:42.029Z,5.33
2019-04-25T15:18:08.367Z,5.23
2019-04-25T15:20:36.714Z,4.63
2019-04-25T15:26:31.169Z,5.10
2019-04-25T15:28:57.506Z,5.47
2019-04-25T15:31:55.227Z,5.07
2019-04-25T15:42:39.972Z,4.97
2019-04-25T15:48:34.403Z,4.87
2019-04-25T15:51:00.697Z,4.57
2019-04-25T15:53:27.204Z,4.70
2019-04-25T15:56:15.092Z,5.17
2019-04-25T15:58:41.667Z,4.67
2019-04-25T16:04:08.166Z,4.67
2019-04-25T16:06:34.499Z,5.13
2019-04-25T16:14:57.339Z,4.83
2019-04-25T16:19:58.037Z,4.80
2019-04-25T16:22:24.612Z,4.53
2019-04-25T16:27:39.010Z,5.30
2019-04-25T16:32:37.086Z,5.07
2019-04-25T16:35:23.090Z,5.07
2019-04-25T16:37:49.348Z,5.27
2019-04-25T16:40:15.607Z,4.93
2019-04-25T16:42:41.898Z,3.97
2019-04-25T16:45:28.940Z,4.57
2019-04-25T16:47:56.274Z,4.73
2019-04-25T16:53:10.155Z,4.43
2019-04-25T16:55:36.697Z,5.13
2019-04-25T16:58:05.391Z,4.60
2019-04-25T17:05:58.269Z,4.37
2019-04-25T17:08:44.275Z,5.00
2019-04-25T17:17:06.945Z,4.43
2019-04-25T17:19:52.973Z,4.60
2019-04-25T17:24:53.574Z,4.70
2019-04-25T17:30:48.747Z,4.60
2019-04-25T17:38:45.626Z,4.60
2019-04-25T17:43:51.996Z,4.90
2019-04-25T17:48:52.309Z,4.70
2019-04-25T17:51:18.668Z,4.83
2019-04-25T17:53:44.926Z,4.77
2019-04-25T17:56:11.293Z,4.80
2019-04-25T17:58:37.540Z,6.00
2019-04-25T18:01:03.833Z,7.03
2019-04-25T18:03:30.082Z,5.93
2019-04-25T18:06:16.261Z,5.67
2019-04-25T18:11:38.099Z,5.73
2019-04-25T18:19:36.753Z,5.90
2019-04-25T18:25:15.496Z,5.60
2019-04-25T18:28:01.870Z,5.47
2019-04-25T18:30:28.553Z,5.40
2019-04-25T18:33:14.568Z,4.97
2019-04-25T18:36:02.414Z,4.87
2019-04-25T18:47:17.480Z,4.30
2019-04-25T18:52:51.106Z,5.63
2019-04-25T18:55:37.597Z,6.13
2019-04-25T18:58:23.652Z,6.27
2019-04-25T19:01:09.679Z,6.20
2019-04-25T19:03:55.723Z,5.03
2019-04-25T19:08:56.397Z,5.33
2019-04-25T19:11:22.660Z,6.50
2019-04-25T19:13:49.249Z,5.40
2019-04-25T19:16:15.522Z,5.97
2019-04-25T19:18:44.439Z,5.60
2019-04-25T19:21:09.930Z,6.93
2019-04-25T19:26:10.175Z,5.87
2019-04-25T19:28:36.640Z,5.40
2019-04-25T19:33:53.646Z,5.70
2019-04-25T19:36:19.901Z,5.90
2019-04-25T19:38:46.159Z,6.27
2019-04-25T19:41:32.290Z,5.47
2019-04-25T19:46:52.405Z,5.70
2019-04-25T19:49:18.657Z,6.33
2019-04-25T19:51:45.204Z,5.87
2019-04-25T19:54:36.044Z,6.43
2019-04-25T19:57:02.352Z,6.73
2019-04-25T19:59:28.603Z,6.87
2019-04-25T20:10:57.799Z,6.77
2019-04-25T20:13:24.117Z,5.67
2019-04-25T20:16:10.176Z,6.57
2019-04-25T20:18:36.663Z,6.80
2019-04-25T20:21:03.393Z,6.57
2019-04-25T20:23:29.971Z,7.43
2019-04-25T20:26:38.582Z,6.17
2019-04-25T20:29:04.856Z,6.70
2019-04-25T20:31:52.815Z,5.93
2019-04-25T20:34:19.115Z,6.40
2019-04-25T20:36:45.749Z,5.60
2019-04-25T20:39:13.545Z,6.90
2019-04-25T20:41:39.852Z,6.37
2019-04-25T20:44:06.315Z,6.47
2019-04-25T20:46:32.581Z,6.93
2019-04-25T20:49:18.571Z,7.30
2019-04-25T20:51:44.812Z,8.20
2019-04-25T20:54:11.063Z,7.47
2019-04-25T20:56:37.375Z,6.80
2019-04-25T20:59:03.642Z,6.97
2019-04-25T21:01:30.155Z,6.57
2019-04-25T21:03:56.409Z,7.27
2019-04-25T21:08:57.598Z,7.13
2019-04-25T21:11:24.984Z,7.00
2019-04-25T21:14:11.011Z,7.27
2019-04-25T21:16:57.041Z,7.37
2019-04-25T21:19:43.060Z,6.30
2019-04-25T21:22:09.323Z,6.63
2019-04-25T21:24:35.568Z,6.20
2019-04-25T21:27:01.839Z,6.93
2019-04-25T21:29:28.201Z,6.23
2019-04-25T21:31:54.689Z,7.63
2019-04-25T21:34:26.522Z,7.40
2019-04-25T21:36:49.102Z,6.90
2019-04-25T21:39:35.351Z,7.43
2019-04-25T21:42:21.402Z,7.17
2019-04-25T21:44:47.960Z,7.23
2019-04-25T21:47:14.213Z,7.27
2019-04-25T21:49:42.361Z,8.03
2019-04-25T21:52:08.604Z,7.63
2019-04-25T21:54:35.057Z,7.57
2019-04-25T21:57:01.842Z,6.87
2019-04-25T21:59:29.789Z,6.90
2019-04-25T22:02:37.352Z,7.00
2019-04-25T22:13:16.771Z,7.30
2019-04-25T22:15:41.939Z,7.33
2019-04-25T22:18:08.212Z,7.03
2019-04-25T22:20:36.194Z,7.73
2019-04-25T22:23:02.543Z,7.50
2019-04-25T22:25:30.721Z,8.07
2019-04-25T22:27:58.671Z,7.37
2019-04-25T22:30:26.029Z,7.27
2019-04-25T22:36:00.133Z,7.57
2019-04-25T22:38:26.771Z,8.23
2019-04-25T22:40:53.067Z,7.20
2019-04-25T22:43:19.550Z,7.77
2019-04-25T22:45:46.135Z,7.57
2019-04-25T22:48:12.436Z,7.63
2019-04-25T22:50:38.923Z,7.77
2019-04-25T22:53:05.284Z,7.30
2019-04-25T22:55:33.394Z,7.77
2019-04-25T22:57:59.679Z,7.33
2019-04-25T23:08:25.271Z,7.27
2019-04-25T23:10:51.557Z,7.60
2019-04-25T23:13:17.854Z,7.10
2019-04-25T23:15:44.120Z,7.27
2019-04-25T23:18:11.382Z,8.13
2019-04-25T23:20:38.959Z,8.23
2019-04-25T23:23:05.884Z,7.63
2019-04-25T23:25:51.935Z,7.80
2019-04-25T23:31:12.585Z,8.27
2019-04-25T23:33:50.809Z,8.47
2019-04-25T23:36:17.482Z,7.60
2019-04-25T23:38:43.760Z,8.53
2019-04-25T23:41:10.230Z,8.40
2019-04-25T23:43:36.598Z,7.90
2019-04-25T23:46:02.892Z,7.90
2019-04-25T23:48:29.468Z,7.93
2019-04-25T23:50:55.755Z,8.70
2019-04-25T23:53:22.024Z,8.30
2019-04-25T23:55:48.314Z,8.47
2019-04-25T23:58:14.678Z,7.93
